»·PEaware :: N516TT KSUN-KBOI

N516TT :: KSUN-KBOI

FLIGHT INFORMATION

Flight Status: Arrived
Operator: Privately registered:
United States
More flights under this callsign
Pilot: Gareth S. (19921)
Aircraft: AERMACCHI WARRIOR
(F260)
More flights by this aircraft type
Origin: KSUN Friedman Meml
United States
Destination: KBOI Boise Air Terminal/Gowen
United States
More flights between these airports :: More routes between these airports
Route: +HLE BOI
File this flight plan on PilotEdge
Remarks:
Altitude:
(Current/Filed)
10,500ft
Speed:
(Current/Filed)
150kts
Departed: 05-Apr-20 02:51 PM
Arrived: 05-Apr-20 03:35 PM
Distance/Time
Traveled:
84nm/0:43
Distance/Time
To Go:
Arrived

Flight Plot

Page will automatically refresh every two minutes.


Map Options




Map Legend


Flown Route
Filed Route
Departure Airport
Arrival Airport
Navaid (VOR, NDB)
Fix

Horizontal Profiles

Position Reports

Time Latitude Longitude Heading Altitude Ground
Speed
05-Apr-20 14:17 43.500911 -114.295102 181 5296ft 0kts
05-Apr-20 14:18 43.500911 -114.295102 181 5296ft 0kts
05-Apr-20 14:19 43.500911 -114.295102 181 5296ft 0kts
05-Apr-20 14:20 43.500911 -114.295102 181 5296ft 0kts
05-Apr-20 14:21 43.500911 -114.295102 181 5296ft 0kts
05-Apr-20 14:22 43.500911 -114.295102 181 5296ft 0kts
05-Apr-20 14:23 43.500911 -114.295102 181 5296ft 0kts
05-Apr-20 14:24 43.500911 -114.295102 181 5296ft 0kts
05-Apr-20 14:25 43.500911 -114.295102 181 5296ft 0kts
05-Apr-20 14:26 43.500911 -114.295102 181 5296ft 0kts
05-Apr-20 14:27 43.500911 -114.295102 181 5296ft 0kts
05-Apr-20 14:28 43.500911 -114.295102 181 5296ft 0kts
05-Apr-20 14:29 43.500911 -114.295102 181 5296ft 0kts
05-Apr-20 14:30 43.500911 -114.295102 181 5296ft 0kts
05-Apr-20 14:31 43.500911 -114.295102 181 5296ft 0kts
05-Apr-20 14:32 43.500911 -114.295102 181 5296ft 0kts
05-Apr-20 14:33 43.500911 -114.295102 181 5296ft 0kts
05-Apr-20 14:34 43.500911 -114.295102 181 5296ft 0kts
05-Apr-20 14:35 43.500911 -114.295102 181 5296ft 0kts
05-Apr-20 14:36 43.500911 -114.295102 181 5296ft 0kts
05-Apr-20 14:37 43.500911 -114.295102 181 5296ft 0kts
05-Apr-20 14:38 43.500911 -114.295102 181 5296ft 0kts
05-Apr-20 14:39 43.500911 -114.295102 181 5296ft 0kts
05-Apr-20 14:40 43.500911 -114.295102 181 5296ft 0kts
05-Apr-20 14:41 43.500911 -114.295102 181 5296ft 0kts
05-Apr-20 14:42 43.500911 -114.295102 181 5296ft 0kts
05-Apr-20 14:43 43.500911 -114.295102 181 5296ft 0kts
05-Apr-20 14:44 43.501191 -114.294623 0 5296ft 7kts
05-Apr-20 14:45 43.503660 -114.296969 325 5296ft 13kts
05-Apr-20 14:46 43.507172 -114.300365 326 5296ft 17kts
05-Apr-20 14:47 43.511070 -114.304089 321 5296ft 11kts
05-Apr-20 14:48 43.511577 -114.304383 22 5296ft 0kts
05-Apr-20 14:49 43.511708 -114.304281 29 5296ft 7kts
05-Apr-20 14:50 43.503961 -114.295852 145 5339ft 82kts
05-Apr-20 14:51 43.483795 -114.278701 149 5979ft 89kts
05-Apr-20 14:52 43.457099 -114.273121 162 6653ft 99kts
05-Apr-20 14:53 43.429472 -114.266112 168 7371ft 100kts
05-Apr-20 14:54 43.402050 -114.259679 168 8210ft 104kts
05-Apr-20 14:55 43.373263 -114.251997 168 9073ft 106kts
05-Apr-20 14:56 43.345265 -114.243397 170 10076ft 95kts
05-Apr-20 14:57 43.321146 -114.244629 247 10805ft 99kts
05-Apr-20 14:58 43.321053 -114.281606 275 11514ft 99kts
05-Apr-20 14:59 43.321290 -114.317150 251 11985ft 107kts
05-Apr-20 15:00 43.321685 -114.364746 275 12121ft 137kts
05-Apr-20 15:01 43.329538 -114.420411 275 11979ft 154kts
05-Apr-20 15:02 43.338272 -114.478125 279 11964ft 155kts
05-Apr-20 15:03 43.349535 -114.535555 279 11947ft 154kts
05-Apr-20 15:04 43.360580 -114.591399 279 11947ft 152kts
05-Apr-20 15:05 43.371672 -114.647281 279 11948ft 152kts
05-Apr-20 15:06 43.382944 -114.703303 279 11970ft 150kts
05-Apr-20 15:07 43.394124 -114.759253 279 12027ft 153kts
05-Apr-20 15:08 43.405722 -114.816674 279 11962ft 155kts
05-Apr-20 15:09 43.417039 -114.873450 279 11963ft 155kts
05-Apr-20 15:10 43.427013 -114.930600 276 11962ft 153kts
05-Apr-20 15:11 43.437030 -114.988511 277 11968ft 155kts
05-Apr-20 15:12 43.446731 -115.046598 277 11936ft 157kts
05-Apr-20 15:13 43.455426 -115.105138 270 11939ft 155kts
05-Apr-20 15:14 43.459189 -115.163008 269 11909ft 153kts
05-Apr-20 15:15 43.462941 -115.221108 269 11867ft 151kts
05-Apr-20 15:16 43.466544 -115.275218 269 11875ft 126kts
05-Apr-20 15:17 43.470419 -115.327648 269 11894ft 146kts
05-Apr-20 15:18 43.474209 -115.384577 269 11882ft 151kts
05-Apr-20 15:19 43.478150 -115.441567 269 11878ft 151kts
05-Apr-20 15:20 43.482262 -115.499551 269 11874ft 151kts
05-Apr-20 15:21 43.486412 -115.557047 270 11877ft 150kts
05-Apr-20 15:22 43.490563 -115.613239 270 11872ft 147kts
05-Apr-20 15:23 43.494460 -115.675156 269 11158ft 163kts
05-Apr-20 15:24 43.491378 -115.736872 252 10332ft 171kts
05-Apr-20 15:25 43.478562 -115.801599 252 9248ft 177kts
05-Apr-20 15:26 43.464539 -115.869102 252 7922ft 186kts
05-Apr-20 15:27 43.464624 -115.936975 293 6792ft 177kts
05-Apr-20 15:28 43.486903 -115.995635 300 5998ft 169kts
05-Apr-20 15:29 43.508410 -116.049572 294 5121ft 160kts
05-Apr-20 15:30 43.524274 -116.103065 293 4555ft 141kts
05-Apr-20 15:31 43.538643 -116.146274 297 3758ft 103kts
05-Apr-20 15:32 43.548761 -116.174566 299 3300ft 77kts
05-Apr-20 15:33 43.558829 -116.203660 300 2876ft 80kts
05-Apr-20 15:34 43.564289 -116.217090 347 2846ft 0kts
05-Apr-20 15:35 43.564289 -116.217090 347 2846ft 0kts
05-Apr-20 15:36 43.564289 -116.217090 347 2846ft 0kts
05-Apr-20 15:37 43.564973 -116.218120 293 2846ft 9kts
05-Apr-20 15:38 43.566331 -116.222076 292 2846ft 13kts
05-Apr-20 15:39 43.568518 -116.226151 359 2846ft 10kts
05-Apr-20 15:40 43.568879 -116.226651 4 2846ft 0kts
05-Apr-20 15:41 43.568879 -116.226651 4 2846ft 0kts

Navigation Log

Ident Type
Flight plan parsing failed, navigation log unavailable